Time,TemperatureF,DewpointF,PressureIn,WindDirection,WindDirectionDegrees,WindSpeedMPH,WindSpeedGustMPH,Humidity,HourlyPrecipIn,Conditions,Clouds,dailyrainin,SoftwareType,DateUTC
2013-11-01 00:02:00,38.7,26.4,30.04,West,273,6.0,6.0,61,0.00,,,0.00,Wunderground v.1.15,2013-11-01 06:02:00,
2013-11-01 00:07:00,38.7,26.4,30.04,West,266,6.0,6.0,61,0.00,,,0.00,Wunderground v.1.15,2013-11-01 06:07:00,
2013-11-01 00:12:00,38.7,26.4,30.04,WNW,300,6.0,9.0,61,0.00,,,0.00,Wunderground v.1.15,2013-11-01 06:12:00,
2013-11-01 00:21:00,38.7,26.4,30.05,WNW,290,6.0,6.0,61,0.00,,,0.00,Wunderground v.1.15,2013-11-01 06:21:00,
2013-11-01 00:27:00,38.6,25.9,30.06,West,280,6.0,15.0,60,0.00,,,0.00,Wunderground v.1.15,2013-11-01 06:27:00,
2013-11-01 00:32:00,38.7,26.0,30.06,NW,311,6.0,6.0,60,0.00,,,0.00,Wunderground v.1.15,2013-11-01 06:32:00,
2013-11-01 00:37:00,38.6,26.3,30.06,WNW,302,6.0,6.0,61,0.00,,,0.00,Wunderground v.1.15,2013-11-01 06:37:00,
2013-11-01 00:42:00,38.6,26.3,30.06,WNW,297,5.0,5.0,61,0.00,,,0.00,Wunderground v.1.15,2013-11-01 06:42:00,
2013-11-01 00:47:00,38.7,26.0,30.06,WNW,293,6.0,10.0,60,0.00,,,0.00,Wunderground v.1.15,2013-11-01 06:47:00,
2013-11-01 00:56:00,38.7,26.4,30.07,West,267,7.0,8.0,61,0.00,,,0.00,Wunderground v.1.15,2013-11-01 06:56:00,
2013-11-01 01:01:00,38.7,26.4,30.07,West,276,6.0,6.0,61,0.00,,,0.00,Wunderground v.1.15,2013-11-01 07:01:00,
2013-11-01 01:07:00,38.5,26.6,30.07,NW,322,6.0,6.0,62,0.00,,,0.00,Wunderground v.1.15,2013-11-01 07:07:00,
2013-11-01 01:12:00,38.4,26.9,30.07,WNW,289,5.0,5.0,63,0.00,,,0.00,Wunderground v.1.15,2013-11-01 07:12:00,
2013-11-01 01:17:00,38.3,26.8,30.07,WSW,250,5.0,5.0,63,0.00,,,0.00,Wunderground v.1.15,2013-11-01 07:17:00,
2013-11-01 01:22:00,38.2,27.5,30.08,WNW,294,5.0,12.0,65,0.00,,,0.00,Wunderground v.1.15,2013-11-01 07:22:00,
2013-11-01 01:27:00,37.8,27.5,30.08,NW,318,5.0,12.0,66,0.00,,,0.00,Wunderground v.1.15,2013-11-01 07:27:00,
2013-11-01 01:36:00,37.6,27.6,30.08,WNW,291,4.0,5.0,67,0.00,,,0.00,Wunderground v.1.15,2013-11-01 07:36:00,
2013-11-01 01:42:00,37.6,27.6,30.08,WNW,283,5.0,7.0,67,0.00,,,0.00,Wunderground v.1.15,2013-11-01 07:42:00,
2013-11-01 01:47:00,37.7,28.1,30.09,NW,312,5.0,7.0,68,0.00,,,0.00,Wunderground v.1.15,2013-11-01 07:47:00,
2013-11-01 01:52:00,37.7,28.1,30.09,WNW,296,6.0,8.0,68,0.00,,,0.00,Wunderground v.1.15,2013-11-01 07:52:00,
2013-11-01 01:57:00,37.8,28.2,30.09,WNW,283,6.0,8.0,68,0.00,,,0.00,Wunderground v.1.15,2013-11-01 07:57:00,
2013-11-01 02:02:00,37.7,28.1,30.09,NW,311,5.0,5.0,68,0.00,,,0.00,Wunderground v.1.15,2013-11-01 08:02:00,
2013-11-01 02:07:00,37.8,27.5,30.09,WNW,300,4.0,5.0,66,0.00,,,0.00,Wunderground v.1.15,2013-11-01 08:07:00,
2013-11-01 02:16:00,38.1,27.4,30.09,NW,308,4.0,4.0,65,0.00,,,0.00,Wunderground v.1.15,2013-11-01 08:16:00,
2013-11-01 02:22:00,38.1,27.4,30.09,SW,218,5.0,5.0,65,0.00,,,0.00,Wunderground v.1.15,2013-11-01 08:22:00,
2013-11-01 02:27:00,38.0,27.3,30.09,NW,309,4.0,5.0,65,0.00,,,0.00,Wunderground v.1.15,2013-11-01 08:27:00,
2013-11-01 02:32:00,37.9,27.5,30.09,WNW,302,3.0,5.0,66,0.00,,,0.00,Wunderground v.1.15,2013-11-01 08:32:00,
2013-11-01 02:37:00,37.8,27.5,30.09,WNW,300,4.0,6.0,66,0.00,,,0.00,Wunderground v.1.15,2013-11-01 08:37:00,
2013-11-01 02:42:00,37.8,27.1,30.09,West,281,4.0,4.0,65,0.00,,,0.00,Wunderground v.1.15,2013-11-01 08:42:00,
2013-11-01 02:51:00,37.9,27.2,30.09,WNW,283,4.0,4.0,65,0.00,,,0.00,Wunderground v.1.15,2013-11-01 08:51:00,
2013-11-01 02:56:00,37.6,26.9,30.09,WNW,286,4.0,4.0,65,0.00,,,0.00,Wunderground v.1.15,2013-11-01 08:56:00,
2013-11-01 03:01:00,37.3,27.0,30.09,WNW,287,3.0,3.0,66,0.00,,,0.00,Wunderground v.1.15,2013-11-01 09:01:00,
2013-11-01 03:07:00,37.0,27.1,30.09,NW,319,3.0,4.0,67,0.00,,,0.00,Wunderground v.1.15,2013-11-01 09:07:00,
2013-11-01 03:12:00,36.8,27.2,30.10,NW,311,4.0,5.0,68,0.00,,,0.00,Wunderground v.1.15,2013-11-01 09:12:00,
2013-11-01 03:17:00,36.6,27.4,30.10,NW,304,4.0,5.0,69,0.00,,,0.00,Wunderground v.1.15,2013-11-01 09:17:00,
2013-11-01 03:22:00,36.4,27.2,30.10,NW,307,4.0,4.0,69,0.00,,,0.00,Wunderground v.1.15,2013-11-01 09:22:00,
2013-11-01 03:31:00,36.2,27.7,30.10,WNW,293,3.0,4.0,71,0.00,,,0.00,Wunderground v.1.15,2013-11-01 09:31:00,
2013-11-01 03:36:00,36.1,27.9,30.10,West,277,3.0,4.0,72,0.00,,,0.00,Wunderground v.1.15,2013-11-01 09:36:00,
2013-11-01 03:41:00,35.9,27.7,30.11,West,259,4.0,5.0,72,0.00,,,0.00,Wunderground v.1.15,2013-11-01 09:41:00,
2013-11-01 03:47:00,36.1,27.9,30.11,West,278,4.0,5.0,72,0.00,,,0.00,Wunderground v.1.15,2013-11-01 09:47:00,
2013-11-01 03:52:00,36.1,27.9,30.11,WNW,284,3.0,3.0,72,0.00,,,0.00,Wunderground v.1.15,2013-11-01 09:52:00,
2013-11-01 03:57:00,36.3,28.1,30.11,West,263,3.0,3.0,72,0.00,,,0.00,Wunderground v.1.15,2013-11-01 09:57:00,
2013-11-01 04:02:00,36.5,28.0,30.11,WNW,288,3.0,3.0,71,0.00,,,0.00,Wunderground v.1.15,2013-11-01 10:02:00,
2013-11-01 04:11:00,37.0,28.8,30.11,WNW,300,3.0,3.0,72,0.00,,,0.00,Wunderground v.1.15,2013-11-01 10:11:00,
2013-11-01 04:16:00,37.1,28.9,30.11,WNW,296,4.0,6.0,72,0.00,,,0.00,Wunderground v.1.15,2013-11-01 10:16:00,
2013-11-01 04:22:00,37.0,29.1,30.11,WNW,290,4.0,4.0,73,0.00,,,0.00,Wunderground v.1.15,2013-11-01 10:22:00,
2013-11-01 04:27:00,36.8,29.3,30.12,WNW,290,3.0,4.0,74,0.00,,,0.00,Wunderground v.1.15,2013-11-01 10:27:00,
2013-11-01 04:32:00,36.7,29.5,30.12,WNW,288,3.0,3.0,75,0.00,,,0.00,Wunderground v.1.15,2013-11-01 10:32:00,
2013-11-01 04:37:00,36.7,29.2,30.12,WNW,296,3.0,4.0,74,0.00,,,0.00,Wunderground v.1.15,2013-11-01 10:37:00,
2013-11-01 04:47:00,36.5,29.7,30.12,NW,311,4.0,4.0,76,0.00,,,0.00,Wunderground v.1.15,2013-11-01 10:47:00,
2013-11-01 04:56:00,36.3,29.8,30.11,SW,236,3.0,4.0,77,0.00,,,0.00,Wunderground v.1.15,2013-11-01 10:56:00,
2013-11-01 05:02:00,36.2,29.7,30.12,West,271,1.0,3.0,77,0.00,,,0.00,Wunderground v.1.15,2013-11-01 11:02:00,
2013-11-01 05:07:00,36.2,29.7,30.12,SSE,165,1.0,3.0,77,0.00,,,0.00,Wunderground v.1.15,2013-11-01 11:07:00,
2013-11-01 05:12:00,36.1,29.6,30.12,SW,229,1.0,1.0,77,0.00,,,0.00,Wunderground v.1.15,2013-11-01 11:12:00,
2013-11-01 05:17:00,36.1,29.6,30.12,SW,224,1.0,3.0,77,0.00,,,0.00,Wunderground v.1.15,2013-11-01 11:17:00,
2013-11-01 05:22:00,36.2,29.4,30.12,SSE,160,1.0,2.0,76,0.00,,,0.00,Wunderground v.1.15,2013-11-01 11:22:00,
2013-11-01 05:31:00,36.4,29.6,30.11,SE,131,2.0,2.0,76,0.00,,,0.00,Wunderground v.1.15,2013-11-01 11:31:00,
2013-11-01 05:37:00,36.5,29.3,30.11,SE,143,1.0,2.0,75,0.00,,,0.00,Wunderground v.1.15,2013-11-01 11:37:00,
2013-11-01 05:42:00,36.6,29.4,30.12,SSE,160,1.0,1.0,75,0.00,,,0.00,Wunderground v.1.15,2013-11-01 11:42:00,
2013-11-01 05:47:00,36.5,29.0,30.12,SSE,153,2.0,2.0,74,0.00,,,0.00,Wunderground v.1.15,2013-11-01 11:47:00,
2013-11-01 05:52:00,36.6,29.1,30.11,ESE,113,1.0,1.0,74,0.00,,,0.00,Wunderground v.1.15,2013-11-01 11:52:00,
2013-11-01 05:57:00,36.3,28.8,30.12,ESE,110,0.0,1.0,74,0.00,,,0.00,Wunderground v.1.15,2013-11-01 11:57:00,
2013-11-01 06:02:00,35.9,29.1,30.12,ESE,108,0.0,1.0,76,0.00,,,0.00,Wunderground v.1.15,2013-11-01 12:02:00,
2013-11-01 06:11:00,35.0,28.8,30.12,East,96,0.0,0.0,78,0.00,,,0.00,Wunderground v.1.15,2013-11-01 12:11:00,
2013-11-01 06:17:00,34.6,28.8,30.12,WSW,245,0.0,0.0,79,0.00,,,0.00,Wunderground v.1.15,2013-11-01 12:17:00,
2013-11-01 06:22:00,35.4,28.6,30.13,WNW,295,1.0,1.0,76,0.00,,,0.00,Wunderground v.1.15,2013-11-01 12:22:00,
2013-11-01 06:27:00,35.6,28.5,30.13,SSE,147,1.0,1.0,75,0.00,,,0.00,Wunderground v.1.15,2013-11-01 12:27:00,
2013-11-01 06:32:00,35.5,28.4,30.13,East,94,1.0,1.0,75,0.00,,,0.00,Wunderground v.1.15,2013-11-01 12:32:00,
2013-11-01 06:37:00,35.4,27.9,30.13,ESE,104,2.0,2.0,74,0.00,,,0.00,Wunderground v.1.15,2013-11-01 12:37:00,
2013-11-01 06:46:00,34.8,27.7,30.13,ESE,111,0.0,1.0,75,0.00,,,0.00,Wunderground v.1.15,2013-11-01 12:46:00,
2013-11-01 06:51:00,34.5,27.7,30.14,West,276,0.0,0.0,76,0.00,,,0.00,Wunderground v.1.15,2013-11-01 12:51:00,
2013-11-01 06:57:00,35.4,27.9,30.14,SE,143,1.0,1.0,74,0.00,,,0.00,Wunderground v.1.15,2013-11-01 12:57:00,
2013-11-01 07:02:00,35.3,27.8,30.14,SE,142,1.0,1.0,74,0.00,,,0.00,Wunderground v.1.15,2013-11-01 13:02:00,
2013-11-01 07:07:00,35.0,27.5,30.14,ESE,121,0.0,1.0,74,0.00,,,0.00,Wunderground v.1.15,2013-11-01 13:07:00,
2013-11-01 07:12:00,34.4,27.3,30.13,SE,131,1.0,1.0,75,0.00,,,0.00,Wunderground v.1.15,2013-11-01 13:12:00,
2013-11-01 07:17:00,33.6,27.2,30.13,SE,139,0.0,1.0,77,0.00,,,0.00,Wunderground v.1.15,2013-11-01 13:17:00,
2013-11-01 07:26:00,32.9,26.8,30.13,SE,139,0.0,0.0,78,0.00,,,0.00,Wunderground v.1.15,2013-11-01 13:26:00,
2013-11-01 07:32:00,32.6,26.8,30.14,SE,139,0.0,0.0,79,0.00,,,0.00,Wunderground v.1.15,2013-11-01 13:32:00,
2013-11-01 07:36:00,32.4,26.6,30.14,SW,226,0.0,1.0,79,0.00,,,0.00,Wunderground v.1.15,2013-11-01 13:36:00,
2013-11-01 07:42:00,31.9,26.4,30.14,ESE,118,0.0,0.0,80,0.00,,,0.00,Wunderground v.1.15,2013-11-01 13:42:00,
2013-11-01 07:47:00,31.4,25.9,30.14,ESE,118,0.0,0.0,80,0.00,,,0.00,Wunderground v.1.15,2013-11-01 13:47:00,
2013-11-01 07:52:00,31.5,26.6,30.14,ESE,118,0.0,0.0,82,0.00,,,0.00,Wunderground v.1.15,2013-11-01 13:52:00,
2013-11-01 07:57:00,31.3,26.1,30.14,SSE,148,0.0,1.0,81,0.00,,,0.00,Wunderground v.1.15,2013-11-01 13:57:00,
2013-11-01 08:06:00,31.0,26.1,30.14,East,101,0.0,1.0,82,0.00,,,0.00,Wunderground v.1.15,2013-11-01 14:06:00,
2013-11-01 08:11:00,31.4,26.5,30.14,ENE,76,0.0,1.0,82,0.00,,,0.00,Wunderground v.1.15,2013-11-01 14:11:00,
2013-11-01 08:17:00,32.1,26.6,30.14,NE,53,0.0,2.0,80,0.00,,,0.00,Wunderground v.1.15,2013-11-01 14:17:00,
2013-11-01 08:22:00,32.6,26.8,30.15,SSE,163,1.0,1.0,79,0.00,,,0.00,Wunderground v.1.15,2013-11-01 14:22:00,
2013-11-01 08:27:00,33.3,26.9,30.15,NE,39,1.0,1.0,77,0.00,,,0.00,Wunderground v.1.15,2013-11-01 14:27:00,
2013-11-01 08:32:00,34.8,27.4,30.15,NE,54,1.0,1.0,74,0.00,,,0.00,Wunderground v.1.15,2013-11-01 14:32:00,
2013-11-01 08:41:00,35.5,27.4,30.16,WSW,250,1.0,1.0,72,0.00,,,0.00,Wunderground v.1.15,2013-11-01 14:41:00,
2013-11-01 08:46:00,35.5,27.0,30.16,ESE,121,1.0,1.0,71,0.00,,,0.00,Wunderground v.1.15,2013-11-01 14:46:00,
2013-11-01 08:51:00,35.3,27.5,30.16,NW,326,0.0,0.0,73,0.00,,,0.00,Wunderground v.1.15,2013-11-01 14:51:00,
2013-11-01 08:57:00,34.8,27.4,30.16,West,274,0.0,0.0,74,0.00,,,0.00,Wunderground v.1.15,2013-11-01 14:57:00,
2013-11-01 09:02:00,35.7,26.5,30.17,West,264,1.0,1.0,69,0.00,,,0.00,Wunderground v.1.15,2013-11-01 15:02:00,
2013-11-01 09:07:00,36.2,26.3,30.17,West,266,1.0,1.0,67,0.00,,,0.00,Wunderground v.1.15,2013-11-01 15:07:00,
2013-11-01 09:12:00,36.8,25.8,30.17,West,269,0.0,1.0,64,0.00,,,0.00,Wunderground v.1.15,2013-11-01 15:12:00,
2013-11-01 09:21:00,38.1,26.2,30.17,WNW,300,3.0,4.0,62,0.00,,,0.00,Wunderground v.1.15,2013-11-01 15:21:00,
2013-11-01 09:26:00,38.3,26.4,30.18,West,259,4.0,4.0,62,0.00,,,0.00,Wunderground v.1.15,2013-11-01 15:26:00,
2013-11-01 09:31:00,38.8,26.1,30.18,West,274,2.0,2.0,60,0.00,,,0.00,Wunderground v.1.15,2013-11-01 15:31:00,
2013-11-01 09:37:00,39.5,26.3,30.18,SW,218,3.0,6.0,59,0.00,,,0.00,Wunderground v.1.15,2013-11-01 15:37:00,
2013-11-01 09:42:00,40.0,25.6,30.18,WSW,253,4.0,8.0,56,0.00,,,0.00,Wunderground v.1.15,2013-11-01 15:42:00,
2013-11-01 09:47:00,40.4,25.1,30.18,SW,226,6.0,10.0,54,0.00,,,0.00,Wunderground v.1.15,2013-11-01 15:47:00,
2013-11-01 09:52:00,40.6,24.8,30.18,NW,309,7.0,10.0,53,0.00,,,0.00,Wunderground v.1.15,2013-11-01 15:52:00,
2013-11-01 09:57:00,40.9,25.1,30.18,WSW,250,6.0,10.0,53,0.00,,,0.00,Wunderground v.1.15,2013-11-01 15:57:00,
2013-11-01 10:06:00,42.4,25.1,30.18,SSW,211,2.0,5.0,50,0.00,,,0.00,Wunderground v.1.15,2013-11-01 16:06:00,
2013-11-01 10:12:00,42.9,24.5,30.18,SW,236,3.0,3.0,48,0.00,,,0.00,Wunderground v.1.15,2013-11-01 16:12:00,
2013-11-01 10:17:00,43.1,24.7,30.18,WSW,253,4.0,4.0,48,0.00,,,0.00,Wunderground v.1.15,2013-11-01 16:17:00,
2013-11-01 10:22:00,42.9,25.0,30.18,West,263,4.0,4.0,49,0.00,,,0.00,Wunderground v.1.15,2013-11-01 16:22:00,
2013-11-01 10:27:00,43.1,25.2,30.17,SW,231,3.0,4.0,49,0.00,,,0.00,Wunderground v.1.15,2013-11-01 16:27:00,
2013-11-01 10:32:00,43.1,24.7,30.17,SW,236,3.0,6.0,48,0.00,,,0.00,Wunderground v.1.15,2013-11-01 16:32:00,
2013-11-01 10:41:00,43.2,24.8,30.17,West,260,3.0,9.0,48,0.00,,,0.00,Wunderground v.1.15,2013-11-01 16:41:00,
2013-11-01 10:46:00,42.9,25.0,30.17,WNW,284,4.0,9.0,49,0.00,,,0.00,Wunderground v.1.15,2013-11-01 16:46:00,
2013-11-01 10:52:00,42.8,25.4,30.17,NW,304,4.0,4.0,50,0.00,,,0.00,Wunderground v.1.15,2013-11-01 16:52:00,
2013-11-01 10:57:00,43.1,26.2,30.17,NW,311,3.0,7.0,51,0.00,,,0.00,Wunderground v.1.15,2013-11-01 16:57:00,
2013-11-01 11:02:00,43.3,26.4,30.17,West,270,4.0,4.0,51,0.00,,,0.00,Wunderground v.1.15,2013-11-01 17:02:00,
2013-11-01 11:07:00,43.6,25.7,30.17,West,281,4.0,4.0,49,0.00,,,0.00,Wunderground v.1.15,2013-11-01 17:07:00,
2013-11-01 11:12:00,43.9,26.0,30.17,NW,304,3.0,6.0,49,0.00,,,0.00,Wunderground v.1.15,2013-11-01 17:12:00,
2013-11-01 11:21:00,44.5,26.5,30.16,WNW,302,4.0,4.0,49,0.00,,,0.00,Wunderground v.1.15,2013-11-01 17:21:00,
2013-11-01 11:26:00,44.7,25.2,30.17,SW,225,5.0,8.0,46,0.00,,,0.00,Wunderground v.1.15,2013-11-01 17:26:00,
2013-11-01 11:32:00,44.6,25.6,30.17,West,262,7.0,9.0,47,0.00,,,0.00,Wunderground v.1.15,2013-11-01 17:32:00,
2013-11-01 11:37:00,44.4,24.9,30.16,WNW,287,7.0,9.0,46,0.00,,,0.00,Wunderground v.1.15,2013-11-01 17:37:00,
2013-11-01 11:42:00,43.9,24.9,30.16,WSW,255,9.0,13.0,47,0.00,,,0.00,Wunderground v.1.15,2013-11-01 17:42:00,
2013-11-01 11:47:00,44.2,25.2,30.16,WSW,240,8.0,13.0,47,0.00,,,0.00,Wunderground v.1.15,2013-11-01 17:47:00,
2013-11-01 11:52:00,44.1,24.1,30.16,NW,305,7.0,11.0,45,0.00,,,0.00,Wunderground v.1.15,2013-11-01 17:52:00,
2013-11-01 12:01:00,44.5,25.0,30.16,WSW,255,7.0,8.0,46,0.00,,,0.00,Wunderground v.1.15,2013-11-01 18:01:00,
2013-11-01 12:07:00,44.5,25.0,30.15,West,279,8.0,8.0,46,0.00,,,0.00,Wunderground v.1.15,2013-11-01 18:07:00,
2013-11-01 12:12:00,44.8,25.8,30.15,West,260,9.0,9.0,47,0.00,,,0.00,Wunderground v.1.15,2013-11-01 18:12:00,
2013-11-01 12:17:00,44.5,25.0,30.15,West,276,8.0,9.0,46,0.00,,,0.00,Wunderground v.1.15,2013-11-01 18:17:00,
2013-11-01 12:22:00,44.3,25.3,30.15,WNW,290,9.0,9.0,47,0.00,,,0.00,Wunderground v.1.15,2013-11-01 18:22:00,
2013-11-01 12:27:00,44.4,25.9,30.16,WNW,287,8.0,9.0,48,0.00,,,0.00,Wunderground v.1.15,2013-11-01 18:27:00,
2013-11-01 12:36:00,44.0,26.5,30.15,West,262,7.0,8.0,50,0.00,,,0.00,Wunderground v.1.15,2013-11-01 18:36:00,
2013-11-01 12:41:00,44.5,26.0,30.16,West,280,8.0,9.0,48,0.00,,,0.00,Wunderground v.1.15,2013-11-01 18:41:00,
2013-11-01 12:47:00,44.6,26.1,30.15,NW,311,8.0,9.0,48,0.00,,,0.00,Wunderground v.1.15,2013-11-01 18:47:00,
2013-11-01 12:52:00,44.4,26.4,30.15,NNW,331,8.0,8.0,49,0.00,,,0.00,Wunderground v.1.15,2013-11-01 18:52:00,
2013-11-01 12:57:00,44.4,26.9,30.15,WNW,293,7.0,10.0,50,0.00,,,0.00,Wunderground v.1.15,2013-11-01 18:57:00,
2013-11-01 13:02:00,44.1,27.6,30.14,WNW,301,8.0,8.0,52,0.00,,,0.00,Wunderground v.1.15,2013-11-01 19:02:00,
2013-11-01 13:07:00,44.2,27.7,30.14,WNW,297,7.0,8.0,52,0.00,,,0.00,Wunderground v.1.15,2013-11-01 19:07:00,
2013-11-01 13:16:00,44.0,27.0,30.13,West,281,6.0,6.0,51,0.00,,,0.00,Wunderground v.1.15,2013-11-01 19:16:00,
2013-11-01 13:21:00,44.0,26.5,30.13,NW,311,7.0,7.0,50,0.00,,,0.00,Wunderground v.1.15,2013-11-01 19:21:00,
2013-11-01 13:26:00,44.1,27.1,30.13,WNW,293,8.0,13.0,51,0.00,,,0.00,Wunderground v.1.15,2013-11-01 19:26:00,
2013-11-01 13:32:00,44.1,26.6,30.13,WNW,296,8.0,8.0,50,0.00,,,0.00,Wunderground v.1.15,2013-11-01 19:32:00,
2013-11-01 13:37:00,44.2,27.2,30.13,NW,304,7.0,15.0,51,0.00,,,0.00,Wunderground v.1.15,2013-11-01 19:37:00,
2013-11-01 13:42:00,44.3,25.8,30.13,NW,319,9.0,12.0,48,0.00,,,0.00,Wunderground v.1.15,2013-11-01 19:42:00,
2013-11-01 13:47:00,44.3,26.3,30.13,NW,311,10.0,12.0,49,0.00,,,0.00,Wunderground v.1.15,2013-11-01 19:47:00,
2013-11-01 13:56:00,44.6,26.1,30.14,NW,304,9.0,9.0,48,0.00,,,0.00,Wunderground v.1.15,2013-11-01 19:56:00,
2013-11-01 14:01:00,44.8,27.3,30.14,NW,322,10.0,10.0,50,0.00,,,0.00,Wunderground v.1.15,2013-11-01 20:01:00,
2013-11-01 14:07:00,45.1,28.0,30.13,WNW,294,10.0,12.0,51,0.00,,,0.00,Wunderground v.1.15,2013-11-01 20:07:00,
2013-11-01 14:12:00,45.0,27.9,30.13,WNW,290,11.0,15.0,51,0.00,,,0.00,Wunderground v.1.15,2013-11-01 20:12:00,
2013-11-01 14:17:00,45.3,27.7,30.13,West,278,10.0,15.0,50,0.00,,,0.00,Wunderground v.1.15,2013-11-01 20:17:00,
2013-11-01 14:22:00,45.3,27.7,30.13,NW,306,9.0,9.0,50,0.00,,,0.00,Wunderground v.1.15,2013-11-01 20:22:00,
2013-11-01 14:31:00,45.5,26.9,30.12,WNW,295,9.0,11.0,48,0.00,,,0.00,Wunderground v.1.15,2013-11-01 20:31:00,
2013-11-01 14:36:00,45.3,26.7,30.12,NW,306,10.0,11.0,48,0.00,,,0.00,Wunderground v.1.15,2013-11-01 20:36:00,
2013-11-01 14:41:00,45.4,26.8,30.12,WNW,297,10.0,10.0,48,0.00,,,0.00,Wunderground v.1.15,2013-11-01 20:41:00,
2013-11-01 14:47:00,45.4,26.8,30.12,NW,311,9.0,10.0,48,0.00,,,0.00,Wunderground v.1.15,2013-11-01 20:47:00,
2013-11-01 14:52:00,45.6,26.5,30.11,NW,306,7.0,8.0,47,0.00,,,0.00,Wunderground v.1.15,2013-11-01 20:52:00,
2013-11-01 14:57:00,45.7,26.6,30.11,NW,311,8.0,13.0,47,0.00,,,0.00,Wunderground v.1.15,2013-11-01 20:57:00,
2013-11-01 15:02:00,45.6,26.5,30.11,NW,304,8.0,12.0,47,0.00,,,0.00,Wunderground v.1.15,2013-11-01 21:02:00,
2013-11-01 15:11:00,45.7,26.6,30.11,WNW,290,9.0,10.0,47,0.00,,,0.00,Wunderground v.1.15,2013-11-01 21:11:00,
2013-11-01 15:16:00,45.8,26.7,30.11,NW,322,9.0,10.0,47,0.00,,,0.00,Wunderground v.1.15,2013-11-01 21:16:00,
2013-11-01 15:21:00,45.8,26.7,30.12,West,269,9.0,9.0,47,0.00,,,0.00,Wunderground v.1.15,2013-11-01 21:21:00,
2013-11-01 15:27:00,45.7,27.1,30.11,WNW,301,9.0,9.0,48,0.00,,,0.00,Wunderground v.1.15,2013-11-01 21:27:00,
2013-11-01 15:32:00,45.7,27.1,30.11,WNW,302,9.0,9.0,48,0.00,,,0.00,Wunderground v.1.15,2013-11-01 21:32:00,
2013-11-01 15:37:00,45.7,27.1,30.11,NW,311,9.0,11.0,48,0.00,,,0.00,Wunderground v.1.15,2013-11-01 21:37:00,
2013-11-01 15:42:00,45.7,27.1,30.11,WNW,292,9.0,9.0,48,0.00,,,0.00,Wunderground v.1.15,2013-11-01 21:42:00,
2013-11-01 15:47:00,45.8,27.2,30.12,NW,311,9.0,9.0,48,0.00,,,0.00,Wunderground v.1.15,2013-11-01 21:47:00,
2013-11-01 15:56:00,45.7,27.1,30.11,NW,311,9.0,9.0,48,0.00,,,0.00,Wunderground v.1.15,2013-11-01 21:56:00,
2013-11-01 16:02:00,45.8,27.2,30.11,West,263,9.0,9.0,48,0.00,,,0.00,Wunderground v.1.15,2013-11-01 22:02:00,
2013-11-01 16:07:00,45.9,27.3,30.11,WNW,290,8.0,9.0,48,0.00,,,0.00,Wunderground v.1.15,2013-11-01 22:07:00,
2013-11-01 16:12:00,45.7,27.1,30.10,NW,322,7.0,8.0,48,0.00,,,0.00,Wunderground v.1.15,2013-11-01 22:12:00,
2013-11-01 16:17:00,45.8,27.2,30.10,West,273,7.0,8.0,48,0.00,,,0.00,Wunderground v.1.15,2013-11-01 22:17:00,
2013-11-01 16:22:00,46.0,27.4,30.10,West,276,6.0,6.0,48,0.00,,,0.00,Wunderground v.1.15,2013-11-01 22:22:00,
2013-11-01 16:31:00,45.8,27.7,30.10,WNW,290,7.0,7.0,49,0.00,,,0.00,Wunderground v.1.15,2013-11-01 22:31:00,
2013-11-01 16:36:00,45.6,27.0,30.10,West,278,8.0,8.0,48,0.00,,,0.00,Wunderground v.1.15,2013-11-01 22:36:00,
2013-11-01 16:42:00,45.5,26.9,30.10,NW,309,8.0,10.0,48,0.00,,,0.00,Wunderground v.1.15,2013-11-01 22:42:00,
2013-11-01 16:47:00,45.4,26.8,30.10,West,267,8.0,10.0,48,0.00,,,0.00,Wunderground v.1.15,2013-11-01 22:47:00,
2013-11-01 16:52:00,45.5,26.9,30.10,WNW,291,7.0,7.0,48,0.00,,,0.00,Wunderground v.1.15,2013-11-01 22:52:00,
2013-11-01 16:57:00,45.5,26.9,30.10,WNW,298,6.0,7.0,48,0.00,,,0.00,Wunderground v.1.15,2013-11-01 22:57:00,
2013-11-01 17:02:00,45.5,27.4,30.10,WNW,283,7.0,8.0,49,0.00,,,0.00,Wunderground v.1.15,2013-11-01 23:02:00,
2013-11-01 17:11:00,45.2,27.2,30.10,WNW,297,8.0,8.0,49,0.00,,,0.00,Wunderground v.1.15,2013-11-01 23:11:00,
2013-11-01 17:16:00,45.1,27.1,30.10,WNW,293,7.0,9.0,49,0.00,,,0.00,Wunderground v.1.15,2013-11-01 23:16:00,
2013-11-01 17:22:00,45.0,27.0,30.10,NW,325,7.0,11.0,49,0.00,,,0.00,Wunderground v.1.15,2013-11-01 23:22:00,
2013-11-01 17:27:00,44.8,26.8,30.10,WNW,299,8.0,11.0,49,0.00,,,0.00,Wunderground v.1.15,2013-11-01 23:27:00,
2013-11-01 17:32:00,44.3,26.8,30.10,WNW,284,7.0,7.0,50,0.00,,,0.00,Wunderground v.1.15,2013-11-01 23:32:00,
2013-11-01 17:37:00,43.9,26.4,30.10,NW,307,7.0,7.0,50,0.00,,,0.00,Wunderground v.1.15,2013-11-01 23:37:00,
2013-11-01 17:42:00,43.6,26.6,30.10,WNW,295,6.0,6.0,51,0.00,,,0.00,Wunderground v.1.15,2013-11-01 23:42:00,
2013-11-01 17:51:00,43.2,26.7,30.10,NW,311,5.0,5.0,52,0.00,,,0.00,Wunderground v.1.15,2013-11-01 23:51:00,
2013-11-01 17:57:00,43.1,26.7,30.10,NNW,328,5.0,6.0,52,0.00,,,0.00,Wunderground v.1.15,2013-11-01 23:57:00,
2013-11-01 18:01:00,43.0,27.0,30.10,WNW,294,5.0,5.0,53,0.00,,,0.00,Wunderground v.1.15,2013-11-02 00:01:00,
2013-11-01 18:07:00,42.8,26.8,30.10,NW,308,4.0,6.0,53,0.00,,,0.00,Wunderground v.1.15,2013-11-02 00:07:00,
2013-11-01 18:12:00,42.7,26.7,30.10,WNW,287,5.0,5.0,53,0.00,,,0.00,Wunderground v.1.15,2013-11-02 00:12:00,
2013-11-01 18:17:00,42.6,26.6,30.10,WNW,288,5.0,5.0,53,0.00,,,0.00,Wunderground v.1.15,2013-11-02 00:17:00,
2013-11-01 18:26:00,42.4,26.9,30.10,West,267,5.0,8.0,54,0.00,,,0.00,Wunderground v.1.15,2013-11-02 00:26:00,
2013-11-01 18:31:00,42.2,26.7,30.11,West,264,4.0,6.0,54,0.00,,,0.00,Wunderground v.1.15,2013-11-02 00:31:00,
2013-11-01 18:36:00,42.1,26.6,30.11,WSW,246,4.0,6.0,54,0.00,,,0.00,Wunderground v.1.15,2013-11-02 00:36:00,
2013-11-01 18:42:00,41.9,26.9,30.11,West,275,4.0,4.0,55,0.00,,,0.00,Wunderground v.1.15,2013-11-02 00:42:00,
2013-11-01 18:47:00,41.6,26.6,30.11,WSW,252,3.0,4.0,55,0.00,,,0.00,Wunderground v.1.15,2013-11-02 00:47:00,
2013-11-01 18:52:00,41.4,26.9,30.11,WSW,249,3.0,3.0,56,0.00,,,0.00,Wunderground v.1.15,2013-11-02 00:52:00,
2013-11-01 18:57:00,41.2,26.7,30.11,West,276,3.0,3.0,56,0.00,,,0.00,Wunderground v.1.15,2013-11-02 00:57:00,
2013-11-01 19:06:00,40.8,26.7,30.11,WSW,252,1.0,4.0,57,0.00,,,0.00,Wunderground v.1.15,2013-11-02 01:06:00,
2013-11-01 19:11:00,40.7,26.6,30.11,WSW,250,2.0,3.0,57,0.00,,,0.00,Wunderground v.1.15,2013-11-02 01:11:00,
2013-11-01 19:16:00,40.5,26.9,30.11,WSW,249,2.0,3.0,58,0.00,,,0.00,Wunderground v.1.15,2013-11-02 01:16:00,
2013-11-01 19:22:00,40.8,26.7,30.11,West,273,3.0,3.0,57,0.00,,,0.00,Wunderground v.1.15,2013-11-02 01:22:00,
2013-11-01 19:27:00,40.9,26.8,30.11,NW,304,4.0,4.0,57,0.00,,,0.00,Wunderground v.1.15,2013-11-02 01:27:00,
2013-11-01 19:32:00,40.9,26.8,30.11,North,4,4.0,7.0,57,0.00,,,0.00,Wunderground v.1.15,2013-11-02 01:32:00,
2013-11-01 19:37:00,41.1,27.0,30.12,WSW,242,4.0,7.0,57,0.00,,,0.00,Wunderground v.1.15,2013-11-02 01:37:00,
2013-11-01 19:46:00,40.1,26.5,30.11,SSW,209,2.0,3.0,58,0.00,,,0.00,Wunderground v.1.15,2013-11-02 01:46:00,
2013-11-01 19:51:00,39.6,26.4,30.11,SSW,204,2.0,2.0,59,0.00,,,0.00,Wunderground v.1.15,2013-11-02 01:51:00,
2013-11-01 19:56:00,39.3,26.6,30.11,SW,221,2.0,2.0,60,0.00,,,0.00,Wunderground v.1.15,2013-11-02 01:56:00,
2013-11-01 20:02:00,39.1,26.8,30.11,WSW,253,1.0,1.0,61,0.00,,,0.00,Wunderground v.1.15,2013-11-02 02:02:00,
2013-11-01 20:07:00,39.2,26.9,30.11,WSW,250,2.0,2.0,61,0.00,,,0.00,Wunderground v.1.15,2013-11-02 02:07:00,
2013-11-01 20:12:00,39.1,26.8,30.11,West,273,2.0,2.0,61,0.00,,,0.00,Wunderground v.1.15,2013-11-02 02:12:00,
2013-11-01 20:22:00,38.8,26.5,30.10,West,280,1.0,1.0,61,0.00,,,0.00,Wunderground v.1.15,2013-11-02 02:22:00,
2013-11-01 20:31:00,38.0,26.5,30.11,NE,36,0.0,0.0,63,0.00,,,0.00,Wunderground v.1.15,2013-11-02 02:31:00,
2013-11-01 20:37:00,37.0,26.3,30.10,NE,36,0.0,0.0,65,0.00,,,0.00,Wunderground v.1.15,2013-11-02 02:37:00,
2013-11-01 20:42:00,36.2,26.3,30.10,NE,39,0.0,0.0,67,0.00,,,0.00,Wunderground v.1.15,2013-11-02 02:42:00,
2013-11-01 20:47:00,35.6,26.1,30.10,ESE,108,0.0,1.0,68,0.00,,,0.00,Wunderground v.1.15,2013-11-02 02:47:00,
2013-11-01 20:52:00,35.2,26.0,30.10,SE,138,0.0,0.0,69,0.00,,,0.00,Wunderground v.1.15,2013-11-02 02:52:00,
2013-11-01 20:57:00,34.6,25.8,30.10,SE,138,0.0,0.0,70,0.00,,,0.00,Wunderground v.1.15,2013-11-02 02:57:00,
2013-11-01 21:06:00,34.0,25.9,30.10,WNW,295,0.0,0.0,72,0.00,,,0.00,Wunderground v.1.15,2013-11-02 03:06:00,
2013-11-01 21:11:00,33.9,25.8,30.10,North,360,0.0,0.0,72,0.00,,,0.00,Wunderground v.1.15,2013-11-02 03:11:00,
2013-11-01 21:17:00,33.6,25.9,30.11,North,360,0.0,0.0,73,0.00,,,0.00,Wunderground v.1.15,2013-11-02 03:17:00,
2013-11-01 21:22:00,33.3,25.6,30.10,North,360,0.0,0.0,73,0.00,,,0.00,Wunderground v.1.15,2013-11-02 03:22:00,
2013-11-01 21:27:00,33.2,25.5,30.10,NNW,332,0.0,0.0,73,0.00,,,0.00,Wunderground v.1.15,2013-11-02 03:27:00,
2013-11-01 21:32:00,32.9,25.5,30.10,West,263,0.0,0.0,74,0.00,,,0.00,Wunderground v.1.15,2013-11-02 03:32:00,
2013-11-01 21:37:00,32.6,25.2,30.10,West,263,0.0,0.0,74,0.00,,,0.00,Wunderground v.1.15,2013-11-02 03:37:00,
2013-11-01 21:46:00,32.3,25.3,30.11,West,264,0.0,0.0,75,0.00,,,0.00,Wunderground v.1.15,2013-11-02 03:46:00,
2013-11-01 21:52:00,32.0,25.0,30.11,North,352,0.0,0.0,75,0.00,,,0.00,Wunderground v.1.15,2013-11-02 03:52:00,
2013-11-01 21:57:00,31.8,24.8,30.10,NE,53,0.0,0.0,75,0.00,,,0.00,Wunderground v.1.15,2013-11-02 03:57:00,
2013-11-01 22:02:00,31.6,24.9,30.10,NW,322,0.0,0.0,76,0.00,,,0.00,Wunderground v.1.15,2013-11-02 04:02:00,
2013-11-01 22:07:00,31.7,25.0,30.10,WSW,240,0.0,1.0,76,0.00,,,0.00,Wunderground v.1.15,2013-11-02 04:07:00,
2013-11-01 22:12:00,31.4,24.7,30.11,West,277,0.0,1.0,76,0.00,,,0.00,Wunderground v.1.15,2013-11-02 04:12:00,
2013-11-01 22:16:00,31.5,24.8,30.10,West,277,1.0,1.0,76,0.00,,,0.00,Wunderground v.1.15,2013-11-02 04:16:00,
2013-11-01 22:21:00,31.4,24.7,30.11,West,277,0.0,0.0,76,0.00,,,0.00,Wunderground v.1.15,2013-11-02 04:21:00,
2013-11-01 22:26:00,31.2,24.5,30.10,West,277,0.0,0.0,76,0.00,,,0.00,Wunderground v.1.15,2013-11-02 04:26:00,
2013-11-01 22:32:00,31.0,24.6,30.10,West,277,0.0,0.0,77,0.00,,,0.00,Wunderground v.1.15,2013-11-02 04:32:00,
2013-11-01 22:37:00,30.6,24.2,30.10,West,276,0.0,0.0,77,0.00,,,0.00,Wunderground v.1.15,2013-11-02 04:37:00,
2013-11-01 22:42:00,30.5,24.5,30.11,West,277,0.0,0.0,78,0.00,,,0.00,Wunderground v.1.15,2013-11-02 04:42:00,
2013-11-01 22:47:00,30.2,24.2,30.10,West,281,0.0,0.0,78,0.00,,,0.00,Wunderground v.1.15,2013-11-02 04:47:00,
2013-11-01 22:52:00,30.2,24.5,30.10,NW,321,0.0,1.0,79,0.00,,,0.00,Wunderground v.1.15,2013-11-02 04:52:00,
2013-11-01 23:01:00,29.8,24.1,30.10,South,176,0.0,1.0,79,0.00,,,0.00,Wunderground v.1.15,2013-11-02 05:01:00,
2013-11-01 23:06:00,29.7,24.3,30.10,WNW,288,0.0,1.0,80,0.00,,,0.00,Wunderground v.1.15,2013-11-02 05:06:00,
2013-11-01 23:12:00,29.9,24.2,30.09,SE,136,0.0,2.0,79,0.00,,,0.00,Wunderground v.1.15,2013-11-02 05:12:00,
2013-11-01 23:17:00,29.7,24.0,30.10,WNW,288,1.0,2.0,79,0.00,,,0.00,Wunderground v.1.15,2013-11-02 05:17:00,
2013-11-01 23:22:00,29.9,24.2,30.09,WNW,288,0.0,0.0,79,0.00,,,0.00,Wunderground v.1.15,2013-11-02 05:22:00,
2013-11-01 23:27:00,29.9,24.2,30.09,WSW,249,0.0,0.0,79,0.00,,,0.00,Wunderground v.1.15,2013-11-02 05:27:00,
2013-11-01 23:32:00,29.9,24.2,30.09,NW,311,0.0,1.0,79,0.00,,,0.00,Wunderground v.1.15,2013-11-02 05:32:00,
2013-11-01 23:41:00,30.0,24.0,30.09,WSW,254,1.0,1.0,78,0.00,,,0.00,Wunderground v.1.15,2013-11-02 05:41:00,
2013-11-01 23:47:00,30.0,24.0,30.09,West,271,2.0,2.0,78,0.00,,,0.00,Wunderground v.1.15,2013-11-02 05:47:00,
2013-11-01 23:51:00,30.1,24.1,30.08,West,260,2.0,2.0,78,0.00,,,0.00,Wunderground v.1.15,2013-11-02 05:51:00,
2013-11-01 23:57:00,30.1,24.1,30.08,WSW,238,1.0,2.0,78,0.00,,,0.00,Wunderground v.1.15,2013-11-02 05:57:00,